sensor_id;sensor_type;location;lat;lon;timestamp;temperature;humidity
27314;DHT22;14800;48.174;9.798;2024-02-16T00:01:37;7.80;83.10
27314;DHT22;14800;48.174;9.798;2024-02-16T00:04:02;7.80;83.10
27314;DHT22;14800;48.174;9.798;2024-02-16T00:06:28;7.80;83.50
27314;DHT22;14800;48.174;9.798;2024-02-16T00:08:53;7.80;83.60
27314;DHT22;14800;48.174;9.798;2024-02-16T00:11:19;7.80;83.40
27314;DHT22;14800;48.174;9.798;2024-02-16T00:13:45;7.80;83.30
27314;DHT22;14800;48.174;9.798;2024-02-16T00:16:11;7.80;83.30
27314;DHT22;14800;48.174;9.798;2024-02-16T00:18:36;7.80;83.00
27314;DHT22;14800;48.174;9.798;2024-02-16T00:21:02;7.70;82.90
27314;DHT22;14800;48.174;9.798;2024-02-16T00:23:28;7.70;82.90
27314;DHT22;14800;48.174;9.798;2024-02-16T00:25:53;7.60;82.80
27314;DHT22;14800;48.174;9.798;2024-02-16T00:28:19;7.60;82.90
27314;DHT22;14800;48.174;9.798;2024-02-16T00:30:44;7.60;82.90
27314;DHT22;14800;48.174;9.798;2024-02-16T00:33:12;7.50;83.20
27314;DHT22;14800;48.174;9.798;2024-02-16T00:35:37;7.50;84.00
27314;DHT22;14800;48.174;9.798;2024-02-16T00:38:03;7.40;84.50
27314;DHT22;14800;48.174;9.798;2024-02-16T00:40:29;7.40;84.60
27314;DHT22;14800;48.174;9.798;2024-02-16T00:42:55;7.40;84.70
27314;DHT22;14800;48.174;9.798;2024-02-16T00:45:20;7.40;84.90
27314;DHT22;14800;48.174;9.798;2024-02-16T00:47:46;7.40;84.80
27314;DHT22;14800;48.174;9.798;2024-02-16T00:50:12;7.40;84.80
27314;DHT22;14800;48.174;9.798;2024-02-16T00:52:38;7.40;84.70
27314;DHT22;14800;48.174;9.798;2024-02-16T00:55:05;7.50;84.60
27314;DHT22;14800;48.174;9.798;2024-02-16T00:57:30;7.50;84.50
27314;DHT22;14800;48.174;9.798;2024-02-16T00:59:56;7.50;84.60
27314;DHT22;14800;48.174;9.798;2024-02-16T01:02:22;7.50;84.70
27314;DHT22;14800;48.174;9.798;2024-02-16T01:04:48;7.40;84.90
27314;DHT22;14800;48.174;9.798;2024-02-16T01:07:15;7.40;85.30
27314;DHT22;14800;48.174;9.798;2024-02-16T01:09:41;7.40;85.50
27314;DHT22;14800;48.174;9.798;2024-02-16T01:12:07;7.40;85.70
27314;DHT22;14800;48.174;9.798;2024-02-16T01:14:32;7.40;85.70
27314;DHT22;14800;48.174;9.798;2024-02-16T01:16:58;7.50;85.70
27314;DHT22;14800;48.174;9.798;2024-02-16T01:19:23;7.50;85.60
27314;DHT22;14800;48.174;9.798;2024-02-16T01:21:49;7.50;85.70
27314;DHT22;14800;48.174;9.798;2024-02-16T01:24:18;7.50;85.90
27314;DHT22;14800;48.174;9.798;2024-02-16T01:26:44;7.50;85.70
27314;DHT22;14800;48.174;9.798;2024-02-16T01:29:09;7.50;86.50
27314;DHT22;14800;48.174;9.798;2024-02-16T01:31:35;7.50;85.60
27314;DHT22;14800;48.174;9.798;2024-02-16T01:34:02;7.60;85.50
27314;DHT22;14800;48.174;9.798;2024-02-16T01:36:27;7.60;85.30
27314;DHT22;14800;48.174;9.798;2024-02-16T01:38:53;7.60;85.20
27314;DHT22;14800;48.174;9.798;2024-02-16T01:41:19;7.60;85.20
27314;DHT22;14800;48.174;9.798;2024-02-16T01:43:45;7.60;85.10
27314;DHT22;14800;48.174;9.798;2024-02-16T01:46:10;7.60;85.00
27314;DHT22;14800;48.174;9.798;2024-02-16T01:48:36;7.70;85.00
27314;DHT22;14800;48.174;9.798;2024-02-16T01:51:07;7.70;84.80
27314;DHT22;14800;48.174;9.798;2024-02-16T01:53:33;7.70;84.80
27314;DHT22;14800;48.174;9.798;2024-02-16T01:55:59;7.70;84.60
27314;DHT22;14800;48.174;9.798;2024-02-16T01:58:25;7.70;84.60
27314;DHT22;14800;48.174;9.798;2024-02-16T02:00:52;7.70;84.60
27314;DHT22;14800;48.174;9.798;2024-02-16T02:03:18;7.70;84.60
27314;DHT22;14800;48.174;9.798;2024-02-16T02:05:44;7.70;84.70
27314;DHT22;14800;48.174;9.798;2024-02-16T02:08:11;7.70;84.80
27314;DHT22;14800;48.174;9.798;2024-02-16T02:10:37;7.70;85.00
27314;DHT22;14800;48.174;9.798;2024-02-16T02:13:02;7.70;85.10
27314;DHT22;14800;48.174;9.798;2024-02-16T02:15:28;7.70;85.40
27314;DHT22;14800;48.174;9.798;2024-02-16T02:17:54;7.70;85.50
27314;DHT22;14800;48.174;9.798;2024-02-16T02:20:19;7.70;85.50
27314;DHT22;14800;48.174;9.798;2024-02-16T02:22:45;7.70;85.40
27314;DHT22;14800;48.174;9.798;2024-02-16T02:25:10;7.70;85.30
27314;DHT22;14800;48.174;9.798;2024-02-16T02:27:37;7.70;85.30
27314;DHT22;14800;48.174;9.798;2024-02-16T02:30:03;7.70;85.30
27314;DHT22;14800;48.174;9.798;2024-02-16T02:32:29;7.70;85.20
27314;DHT22;14800;48.174;9.798;2024-02-16T02:34:54;7.80;85.20
27314;DHT22;14800;48.174;9.798;2024-02-16T02:37:20;7.80;85.20
27314;DHT22;14800;48.174;9.798;2024-02-16T02:39:46;7.80;85.20
27314;DHT22;14800;48.174;9.798;2024-02-16T02:42:11;7.70;85.10
27314;DHT22;14800;48.174;9.798;2024-02-16T02:44:37;7.70;85.10
27314;DHT22;14800;48.174;9.798;2024-02-16T02:47:02;7.60;84.70
27314;DHT22;14800;48.174;9.798;2024-02-16T02:49:28;7.70;84.60
27314;DHT22;14800;48.174;9.798;2024-02-16T02:51:53;7.60;84.60
27314;DHT22;14800;48.174;9.798;2024-02-16T02:54:19;7.60;84.80
27314;DHT22;14800;48.174;9.798;2024-02-16T02:56:45;7.50;84.80
27314;DHT22;14800;48.174;9.798;2024-02-16T02:59:10;7.50;84.80
27314;DHT22;14800;48.174;9.798;2024-02-16T03:01:36;7.50;84.90
27314;DHT22;14800;48.174;9.798;2024-02-16T03:04:02;7.50;85.00
27314;DHT22;14800;48.174;9.798;2024-02-16T03:06:28;7.50;85.10
27314;DHT22;14800;48.174;9.798;2024-02-16T03:08:54;7.50;85.00
27314;DHT22;14800;48.174;9.798;2024-02-16T03:11:20;7.50;84.90
27314;DHT22;14800;48.174;9.798;2024-02-16T03:13:45;7.50;85.00
27314;DHT22;14800;48.174;9.798;2024-02-16T03:16:11;7.50;85.10
27314;DHT22;14800;48.174;9.798;2024-02-16T03:18:37;7.40;85.20
27314;DHT22;14800;48.174;9.798;2024-02-16T03:21:03;7.40;85.20
27314;DHT22;14800;48.174;9.798;2024-02-16T03:23:29;7.40;85.30
27314;DHT22;14800;48.174;9.798;2024-02-16T03:25:54;7.40;85.30
27314;DHT22;14800;48.174;9.798;2024-02-16T03:28:20;7.40;85.30
27314;DHT22;14800;48.174;9.798;2024-02-16T03:30:48;7.40;85.40
27314;DHT22;14800;48.174;9.798;2024-02-16T03:33:14;7.40;85.30
27314;DHT22;14800;48.174;9.798;2024-02-16T03:35:39;7.40;85.30
27314;DHT22;14800;48.174;9.798;2024-02-16T03:38:05;7.40;85.30
27314;DHT22;14800;48.174;9.798;2024-02-16T03:40:31;7.40;85.30
27314;DHT22;14800;48.174;9.798;2024-02-16T03:42:58;7.40;85.20
27314;DHT22;14800;48.174;9.798;2024-02-16T03:45:24;7.40;85.30
27314;DHT22;14800;48.174;9.798;2024-02-16T03:47:50;7.40;85.40
27314;DHT22;14800;48.174;9.798;2024-02-16T03:50:18;7.40;85.50
27314;DHT22;14800;48.174;9.798;2024-02-16T03:52:44;7.40;85.80
27314;DHT22;14800;48.174;9.798;2024-02-16T03:55:10;7.40;85.90
27314;DHT22;14800;48.174;9.798;2024-02-16T03:57:36;7.30;86.00
27314;DHT22;14800;48.174;9.798;2024-02-16T04:00:02;7.30;85.90
27314;DHT22;14800;48.174;9.798;2024-02-16T04:02:31;7.30;85.70
27314;DHT22;14800;48.174;9.798;2024-02-16T04:04:56;7.30;85.50
27314;DHT22;14800;48.174;9.798;2024-02-16T04:07:22;7.30;85.50
27314;DHT22;14800;48.174;9.798;2024-02-16T04:09:47;7.30;85.40
27314;DHT22;14800;48.174;9.798;2024-02-16T04:12:13;7.30;85.30
27314;DHT22;14800;48.174;9.798;2024-02-16T04:14:38;7.30;85.30
27314;DHT22;14800;48.174;9.798;2024-02-16T04:17:04;7.30;85.40
27314;DHT22;14800;48.174;9.798;2024-02-16T04:19:30;7.30;85.50
27314;DHT22;14800;48.174;9.798;2024-02-16T04:21:55;7.20;85.30
27314;DHT22;14800;48.174;9.798;2024-02-16T04:24:21;7.20;85.50
27314;DHT22;14800;48.174;9.798;2024-02-16T04:26:47;7.20;85.50
27314;DHT22;14800;48.174;9.798;2024-02-16T04:29:12;7.20;85.70
27314;DHT22;14800;48.174;9.798;2024-02-16T04:31:41;7.20;86.00
27314;DHT22;14800;48.174;9.798;2024-02-16T04:34:08;7.10;86.80
27314;DHT22;14800;48.174;9.798;2024-02-16T04:36:34;7.20;87.10
27314;DHT22;14800;48.174;9.798;2024-02-16T04:39:00;7.20;87.10
27314;DHT22;14800;48.174;9.798;2024-02-16T04:41:25;7.20;86.90
27314;DHT22;14800;48.174;9.798;2024-02-16T04:43:51;7.20;86.70
27314;DHT22;14800;48.174;9.798;2024-02-16T04:46:17;7.20;86.70
27314;DHT22;14800;48.174;9.798;2024-02-16T04:48:42;7.20;86.50
27314;DHT22;14800;48.174;9.798;2024-02-16T04:51:08;7.20;86.20
27314;DHT22;14800;48.174;9.798;2024-02-16T04:53:33;7.20;86.00
27314;DHT22;14800;48.174;9.798;2024-02-16T04:55:59;7.20;86.00
27314;DHT22;14800;48.174;9.798;2024-02-16T04:58:25;7.20;85.90
27314;DHT22;14800;48.174;9.798;2024-02-16T05:00:50;7.30;85.90
27314;DHT22;14800;48.174;9.798;2024-02-16T05:03:17;7.30;85.70
27314;DHT22;14800;48.174;9.798;2024-02-16T05:05:42;7.20;85.80
27314;DHT22;14800;48.174;9.798;2024-02-16T05:08:09;7.20;85.80
27314;DHT22;14800;48.174;9.798;2024-02-16T05:10:35;7.20;86.00
27314;DHT22;14800;48.174;9.798;2024-02-16T05:13:00;7.20;86.20
27314;DHT22;14800;48.174;9.798;2024-02-16T05:15:26;7.10;86.40
27314;DHT22;14800;48.174;9.798;2024-02-16T05:17:51;7.10;86.60
27314;DHT22;14800;48.174;9.798;2024-02-16T05:20:18;7.10;86.70
27314;DHT22;14800;48.174;9.798;2024-02-16T05:22:45;7.10;86.60
27314;DHT22;14800;48.174;9.798;2024-02-16T05:25:18;7.10;86.40
27314;DHT22;14800;48.174;9.798;2024-02-16T05:27:44;7.10;86.30
27314;DHT22;14800;48.174;9.798;2024-02-16T05:30:11;7.10;86.00
27314;DHT22;14800;48.174;9.798;2024-02-16T05:32:38;7.00;86.00
27314;DHT22;14800;48.174;9.798;2024-02-16T05:35:05;7.00;85.90
27314;DHT22;14800;48.174;9.798;2024-02-16T05:37:38;7.00;85.90
27314;DHT22;14800;48.174;9.798;2024-02-16T05:40:07;6.90;85.80
27314;DHT22;14800;48.174;9.798;2024-02-16T05:42:51;6.90;85.90
27314;DHT22;14800;48.174;9.798;2024-02-16T05:45:17;6.90;85.70
27314;DHT22;14800;48.174;9.798;2024-02-16T05:47:43;6.90;85.50
27314;DHT22;14800;48.174;9.798;2024-02-16T05:50:11;6.80;85.50
27314;DHT22;14800;48.174;9.798;2024-02-16T05:52:40;6.80;85.60
27314;DHT22;14800;48.174;9.798;2024-02-16T05:55:07;6.80;85.60
27314;DHT22;14800;48.174;9.798;2024-02-16T05:57:32;6.80;85.70
27314;DHT22;14800;48.174;9.798;2024-02-16T05:59:58;6.70;85.70
27314;DHT22;14800;48.174;9.798;2024-02-16T06:02:24;6.80;85.70
27314;DHT22;14800;48.174;9.798;2024-02-16T06:04:53;6.70;85.60
27314;DHT22;14800;48.174;9.798;2024-02-16T06:07:18;6.70;85.50
27314;DHT22;14800;48.174;9.798;2024-02-16T06:09:44;6.80;85.40
27314;DHT22;14800;48.174;9.798;2024-02-16T06:12:10;6.70;85.50
27314;DHT22;14800;48.174;9.798;2024-02-16T06:14:36;6.70;86.30
27314;DHT22;14800;48.174;9.798;2024-02-16T06:17:03;6.60;85.70
27314;DHT22;14800;48.174;9.798;2024-02-16T06:19:28;6.60;85.80
27314;DHT22;14800;48.174;9.798;2024-02-16T06:21:54;6.70;86.00
27314;DHT22;14800;48.174;9.798;2024-02-16T06:24:23;6.70;86.20
27314;DHT22;14800;48.174;9.798;2024-02-16T06:26:49;6.70;86.40
27314;DHT22;14800;48.174;9.798;2024-02-16T06:29:15;6.70;86.40
27314;DHT22;14800;48.174;9.798;2024-02-16T06:31:41;6.70;86.60
27314;DHT22;14800;48.174;9.798;2024-02-16T06:34:06;6.70;86.70
27314;DHT22;14800;48.174;9.798;2024-02-16T06:36:33;6.80;86.60
27314;DHT22;14800;48.174;9.798;2024-02-16T06:39:00;6.80;86.60
27314;DHT22;14800;48.174;9.798;2024-02-16T06:41:25;6.80;86.50
27314;DHT22;14800;48.174;9.798;2024-02-16T06:43:51;6.80;86.60
27314;DHT22;14800;48.174;9.798;2024-02-16T06:46:17;6.80;86.60
27314;DHT22;14800;48.174;9.798;2024-02-16T06:48:42;6.80;86.70
27314;DHT22;14800;48.174;9.798;2024-02-16T06:51:08;6.80;86.80
27314;DHT22;14800;48.174;9.798;2024-02-16T06:53:34;6.80;87.00
27314;DHT22;14800;48.174;9.798;2024-02-16T06:55:59;6.80;86.80
27314;DHT22;14800;48.174;9.798;2024-02-16T06:58:25;6.90;87.60
27314;DHT22;14800;48.174;9.798;2024-02-16T07:00:50;6.90;87.50
27314;DHT22;14800;48.174;9.798;2024-02-16T07:03:17;6.90;87.40
27314;DHT22;14800;48.174;9.798;2024-02-16T07:05:43;6.90;87.40
27314;DHT22;14800;48.174;9.798;2024-02-16T07:08:09;7.00;87.60
27314;DHT22;14800;48.174;9.798;2024-02-16T07:10:35;6.90;87.70
27314;DHT22;14800;48.174;9.798;2024-02-16T07:13:00;7.00;87.50
27314;DHT22;14800;48.174;9.798;2024-02-16T07:15:26;7.00;87.30
27314;DHT22;14800;48.174;9.798;2024-02-16T07:17:52;7.00;87.20
27314;DHT22;14800;48.174;9.798;2024-02-16T07:20:18;7.00;87.30
27314;DHT22;14800;48.174;9.798;2024-02-16T07:22:44;7.00;87.60
27314;DHT22;14800;48.174;9.798;2024-02-16T07:25:12;7.10;87.80
27314;DHT22;14800;48.174;9.798;2024-02-16T07:27:38;7.10;87.60
27314;DHT22;14800;48.174;9.798;2024-02-16T07:30:04;7.10;87.50
27314;DHT22;14800;48.174;9.798;2024-02-16T07:32:30;7.10;87.40
27314;DHT22;14800;48.174;9.798;2024-02-16T07:34:56;7.10;87.50
27314;DHT22;14800;48.174;9.798;2024-02-16T07:37:21;7.10;87.50
27314;DHT22;14800;48.174;9.798;2024-02-16T07:39:47;7.10;87.60
27314;DHT22;14800;48.174;9.798;2024-02-16T07:42:12;7.10;87.80
27314;DHT22;14800;48.174;9.798;2024-02-16T07:44:39;7.20;87.80
27314;DHT22;14800;48.174;9.798;2024-02-16T07:47:05;7.20;87.60
27314;DHT22;14800;48.174;9.798;2024-02-16T07:49:31;7.20;87.60
27314;DHT22;14800;48.174;9.798;2024-02-16T07:51:56;7.20;87.60
27314;DHT22;14800;48.174;9.798;2024-02-16T07:54:23;7.20;87.60
27314;DHT22;14800;48.174;9.798;2024-02-16T07:56:48;7.20;87.60
27314;DHT22;14800;48.174;9.798;2024-02-16T07:59:14;7.30;87.70
27314;DHT22;14800;48.174;9.798;2024-02-16T08:01:40;7.30;87.80
27314;DHT22;14800;48.174;9.798;2024-02-16T08:04:06;7.30;88.00
27314;DHT22;14800;48.174;9.798;2024-02-16T08:06:31;7.40;89.00
27314;DHT22;14800;48.174;9.798;2024-02-16T08:08:57;7.40;88.20
27314;DHT22;14800;48.174;9.798;2024-02-16T08:11:23;7.40;88.20
27314;DHT22;14800;48.174;9.798;2024-02-16T08:13:48;7.40;88.20
27314;DHT22;14800;48.174;9.798;2024-02-16T08:16:14;7.50;88.40
27314;DHT22;14800;48.174;9.798;2024-02-16T08:18:39;7.60;88.50
27314;DHT22;14800;48.174;9.798;2024-02-16T08:21:05;7.60;88.60
27314;DHT22;14800;48.174;9.798;2024-02-16T08:23:31;7.70;88.80
27314;DHT22;14800;48.174;9.798;2024-02-16T08:25:57;7.70;89.00
27314;DHT22;14800;48.174;9.798;2024-02-16T08:28:23;7.80;89.30
27314;DHT22;14800;48.174;9.798;2024-02-16T08:30:50;7.80;89.50
27314;DHT22;14800;48.174;9.798;2024-02-16T08:33:15;7.90;89.70
27314;DHT22;14800;48.174;9.798;2024-02-16T08:35:41;8.00;89.90
27314;DHT22;14800;48.174;9.798;2024-02-16T08:38:07;8.00;89.90
27314;DHT22;14800;48.174;9.798;2024-02-16T08:40:37;8.10;89.70
27314;DHT22;14800;48.174;9.798;2024-02-16T08:43:03;8.20;89.90
27314;DHT22;14800;48.174;9.798;2024-02-16T08:45:30;8.30;89.90
27314;DHT22;14800;48.174;9.798;2024-02-16T08:47:56;8.40;89.80
27314;DHT22;14800;48.174;9.798;2024-02-16T08:50:22;8.50;89.80
27314;DHT22;14800;48.174;9.798;2024-02-16T08:52:49;8.60;89.90
27314;DHT22;14800;48.174;9.798;2024-02-16T08:55:15;8.70;89.90
27314;DHT22;14800;48.174;9.798;2024-02-16T08:57:41;8.80;89.90
27314;DHT22;14800;48.174;9.798;2024-02-16T09:00:07;8.90;89.90
27314;DHT22;14800;48.174;9.798;2024-02-16T09:02:33;9.00;90.00
27314;DHT22;14800;48.174;9.798;2024-02-16T09:04:58;9.10;90.00
27314;DHT22;14800;48.174;9.798;2024-02-16T09:07:24;9.20;90.00
27314;DHT22;14800;48.174;9.798;2024-02-16T09:09:51;9.30;89.90
27314;DHT22;14800;48.174;9.798;2024-02-16T09:12:16;9.40;89.70
27314;DHT22;14800;48.174;9.798;2024-02-16T09:14:42;9.60;89.60
27314;DHT22;14800;48.174;9.798;2024-02-16T09:17:08;9.60;89.20
27314;DHT22;14800;48.174;9.798;2024-02-16T09:19:33;9.70;89.20
27314;DHT22;14800;48.174;9.798;2024-02-16T09:21:59;9.80;89.00
27314;DHT22;14800;48.174;9.798;2024-02-16T09:24:28;9.90;88.90
27314;DHT22;14800;48.174;9.798;2024-02-16T09:26:58;10.00;88.90
27314;DHT22;14800;48.174;9.798;2024-02-16T09:29:30;10.10;88.80
27314;DHT22;14800;48.174;9.798;2024-02-16T09:31:55;10.10;89.50
27314;DHT22;14800;48.174;9.798;2024-02-16T09:34:21;10.20;88.50
27314;DHT22;14800;48.174;9.798;2024-02-16T09:36:47;10.30;88.40
27314;DHT22;14800;48.174;9.798;2024-02-16T09:39:12;10.40;88.30
27314;DHT22;14800;48.174;9.798;2024-02-16T09:41:44;10.50;88.30
27314;DHT22;14800;48.174;9.798;2024-02-16T09:44:14;10.60;88.00
27314;DHT22;14800;48.174;9.798;2024-02-16T09:46:39;10.70;87.90
27314;DHT22;14800;48.174;9.798;2024-02-16T09:49:05;10.80;87.80
27314;DHT22;14800;48.174;9.798;2024-02-16T09:51:31;10.80;87.60
27314;DHT22;14800;48.174;9.798;2024-02-16T09:53:56;10.90;87.60
27314;DHT22;14800;48.174;9.798;2024-02-16T09:56:23;11.00;87.40
27314;DHT22;14800;48.174;9.798;2024-02-16T09:58:51;11.10;87.30
27314;DHT22;14800;48.174;9.798;2024-02-16T10:01:18;11.20;87.10
27314;DHT22;14800;48.174;9.798;2024-02-16T10:03:45;11.30;87.00
27314;DHT22;14800;48.174;9.798;2024-02-16T10:06:11;11.40;86.90
27314;DHT22;14800;48.174;9.798;2024-02-16T10:08:52;11.50;86.60
27314;DHT22;14800;48.174;9.798;2024-02-16T10:11:21;11.60;86.10
27314;DHT22;14800;48.174;9.798;2024-02-16T10:16:25;11.90;85.50
27314;DHT22;14800;48.174;9.798;2024-02-16T10:18:50;11.90;85.50
27314;DHT22;14800;48.174;9.798;2024-02-16T10:21:29;12.00;85.30
27314;DHT22;14800;48.174;9.798;2024-02-16T10:24:08;12.10;84.50
27314;DHT22;14800;48.174;9.798;2024-02-16T10:26:35;12.20;84.20
27314;DHT22;14800;48.174;9.798;2024-02-16T10:29:06;12.30;84.40
27314;DHT22;14800;48.174;9.798;2024-02-16T10:31:32;12.30;84.10
27314;DHT22;14800;48.174;9.798;2024-02-16T10:34:03;12.40;83.60
27314;DHT22;14800;48.174;9.798;2024-02-16T10:36:33;12.50;83.50
27314;DHT22;14800;48.174;9.798;2024-02-16T10:39:00;12.60;83.40
27314;DHT22;14800;48.174;9.798;2024-02-16T10:41:30;12.60;83.20
27314;DHT22;14800;48.174;9.798;2024-02-16T10:44:00;12.70;83.20
27314;DHT22;14800;48.174;9.798;2024-02-16T10:46:26;12.80;82.70
27314;DHT22;14800;48.174;9.798;2024-02-16T10:48:52;12.90;82.30
27314;DHT22;14800;48.174;9.798;2024-02-16T10:51:23;13.00;82.30
27314;DHT22;14800;48.174;9.798;2024-02-16T10:53:53;13.10;81.60
27314;DHT22;14800;48.174;9.798;2024-02-16T10:56:37;13.20;81.70
27314;DHT22;14800;48.174;9.798;2024-02-16T10:59:07;13.30;80.90
27314;DHT22;14800;48.174;9.798;2024-02-16T11:01:44;13.40;80.90
27314;DHT22;14800;48.174;9.798;2024-02-16T11:04:16;13.50;79.80
27314;DHT22;14800;48.174;9.798;2024-02-16T11:06:46;13.70;80.00
27314;DHT22;14800;48.174;9.798;2024-02-16T11:09:22;13.80;79.40
27314;DHT22;14800;48.174;9.798;2024-02-16T11:11:55;13.90;79.40
27314;DHT22;14800;48.174;9.798;2024-02-16T11:14:24;14.00;78.20
27314;DHT22;14800;48.174;9.798;2024-02-16T11:16:53;14.00;78.60
27314;DHT22;14800;48.174;9.798;2024-02-16T11:19:21;14.00;78.00
27314;DHT22;14800;48.174;9.798;2024-02-16T11:22:02;14.10;77.20
27314;DHT22;14800;48.174;9.798;2024-02-16T11:24:33;14.20;76.70
27314;DHT22;14800;48.174;9.798;2024-02-16T11:27:06;14.20;77.30
27314;DHT22;14800;48.174;9.798;2024-02-16T11:29:35;14.30;77.00
27314;DHT22;14800;48.174;9.798;2024-02-16T11:32:04;14.40;77.30
27314;DHT22;14800;48.174;9.798;2024-02-16T11:34:30;14.50;77.00
27314;DHT22;14800;48.174;9.798;2024-02-16T11:36:57;14.50;77.10
27314;DHT22;14800;48.174;9.798;2024-02-16T11:39:24;14.60;76.80
27314;DHT22;14800;48.174;9.798;2024-02-16T11:42:10;14.70;76.50
27314;DHT22;14800;48.174;9.798;2024-02-16T11:44:38;14.70;75.00
27314;DHT22;14800;48.174;9.798;2024-02-16T11:47:09;14.80;76.00
27314;DHT22;14800;48.174;9.798;2024-02-16T11:49:40;14.90;75.10
27314;DHT22;14800;48.174;9.798;2024-02-16T11:52:07;15.00;74.90
27314;DHT22;14800;48.174;9.798;2024-02-16T11:54:33;15.10;74.50
27314;DHT22;14800;48.174;9.798;2024-02-16T11:56:58;15.10;74.60
27314;DHT22;14800;48.174;9.798;2024-02-16T11:59:24;15.20;74.30
27314;DHT22;14800;48.174;9.798;2024-02-16T12:01:57;15.30;74.00
27314;DHT22;14800;48.174;9.798;2024-02-16T12:04:23;15.40;73.60
27314;DHT22;14800;48.174;9.798;2024-02-16T12:07:01;15.50;73.80
27314;DHT22;14800;48.174;9.798;2024-02-16T12:09:27;15.50;73.20
27314;DHT22;14800;48.174;9.798;2024-02-16T12:11:54;15.60;73.40
27314;DHT22;14800;48.174;9.798;2024-02-16T12:14:22;15.70;72.80
27314;DHT22;14800;48.174;9.798;2024-02-16T12:16:52;15.80;72.30
27314;DHT22;14800;48.174;9.798;2024-02-16T12:19:21;15.90;71.70
27314;DHT22;14800;48.174;9.798;2024-02-16T12:21:55;15.90;72.00
27314;DHT22;14800;48.174;9.798;2024-02-16T12:24:24;16.00;71.40
27314;DHT22;14800;48.174;9.798;2024-02-16T12:26:50;16.00;71.60
27314;DHT22;14800;48.174;9.798;2024-02-16T12:29:16;16.10;71.10
27314;DHT22;14800;48.174;9.798;2024-02-16T12:31:43;16.10;70.80
27314;DHT22;14800;48.174;9.798;2024-02-16T12:34:09;16.20;70.10
27314;DHT22;14800;48.174;9.798;2024-02-16T12:36:36;16.20;70.40
27314;DHT22;14800;48.174;9.798;2024-02-16T12:39:03;16.20;70.20
27314;DHT22;14800;48.174;9.798;2024-02-16T12:41:33;16.30;70.10
27314;DHT22;14800;48.174;9.798;2024-02-16T12:43:59;16.30;69.60
27314;DHT22;14800;48.174;9.798;2024-02-16T12:46:25;16.40;69.20
27314;DHT22;14800;48.174;9.798;2024-02-16T12:48:51;16.40;69.50
27314;DHT22;14800;48.174;9.798;2024-02-16T12:51:17;16.50;69.40
27314;DHT22;14800;48.174;9.798;2024-02-16T12:53:43;16.50;68.80
27314;DHT22;14800;48.174;9.798;2024-02-16T12:56:09;16.60;68.80
27314;DHT22;14800;48.174;9.798;2024-02-16T12:58:36;16.60;68.70
27314;DHT22;14800;48.174;9.798;2024-02-16T13:01:02;16.60;68.00
27314;DHT22;14800;48.174;9.798;2024-02-16T13:03:28;16.70;68.50
27314;DHT22;14800;48.174;9.798;2024-02-16T13:05:54;16.70;68.40
27314;DHT22;14800;48.174;9.798;2024-02-16T13:08:19;16.70;68.30
27314;DHT22;14800;48.174;9.798;2024-02-16T13:10:45;16.80;68.30
27314;DHT22;14800;48.174;9.798;2024-02-16T13:13:10;16.80;68.10
27314;DHT22;14800;48.174;9.798;2024-02-16T13:15:36;16.90;68.10
27314;DHT22;14800;48.174;9.798;2024-02-16T13:18:01;16.90;68.00
27314;DHT22;14800;48.174;9.798;2024-02-16T13:20:27;16.90;67.60
27314;DHT22;14800;48.174;9.798;2024-02-16T13:22:52;16.90;67.60
27314;DHT22;14800;48.174;9.798;2024-02-16T13:25:19;16.90;67.40
27314;DHT22;14800;48.174;9.798;2024-02-16T13:27:45;16.90;67.30
27314;DHT22;14800;48.174;9.798;2024-02-16T13:30:11;16.90;67.20
27314;DHT22;14800;48.174;9.798;2024-02-16T13:32:37;16.90;66.90
27314;DHT22;14800;48.174;9.798;2024-02-16T13:35:06;16.90;67.10
27314;DHT22;14800;48.174;9.798;2024-02-16T13:37:31;16.90;66.90
27314;DHT22;14800;48.174;9.798;2024-02-16T13:39:57;17.00;67.00
27314;DHT22;14800;48.174;9.798;2024-02-16T13:42:23;17.00;67.20
27314;DHT22;14800;48.174;9.798;2024-02-16T13:44:49;17.00;67.00
27314;DHT22;14800;48.174;9.798;2024-02-16T13:47:15;17.00;66.90
27314;DHT22;14800;48.174;9.798;2024-02-16T13:49:40;17.00;67.10
27314;DHT22;14800;48.174;9.798;2024-02-16T13:52:06;17.10;67.10
27314;DHT22;14800;48.174;9.798;2024-02-16T13:54:34;17.10;66.90
27314;DHT22;14800;48.174;9.798;2024-02-16T13:57:00;17.10;66.60
27314;DHT22;14800;48.174;9.798;2024-02-16T13:59:26;17.20;66.60
27314;DHT22;14800;48.174;9.798;2024-02-16T14:01:53;17.20;66.60
27314;DHT22;14800;48.174;9.798;2024-02-16T14:04:18;17.20;66.70
27314;DHT22;14800;48.174;9.798;2024-02-16T14:06:45;17.20;66.60
27314;DHT22;14800;48.174;9.798;2024-02-16T14:09:10;17.20;66.60
27314;DHT22;14800;48.174;9.798;2024-02-16T14:11:44;17.30;66.80
27314;DHT22;14800;48.174;9.798;2024-02-16T14:14:10;17.30;66.90
27314;DHT22;14800;48.174;9.798;2024-02-16T14:16:35;17.30;66.70
27314;DHT22;14800;48.174;9.798;2024-02-16T14:19:01;17.40;66.30
27314;DHT22;14800;48.174;9.798;2024-02-16T14:21:27;17.40;66.40
27314;DHT22;14800;48.174;9.798;2024-02-16T14:23:52;17.40;66.50
27314;DHT22;14800;48.174;9.798;2024-02-16T14:26:18;17.40;66.70
27314;DHT22;14800;48.174;9.798;2024-02-16T14:28:45;17.40;66.90
27314;DHT22;14800;48.174;9.798;2024-02-16T14:31:11;17.50;66.80
27314;DHT22;14800;48.174;9.798;2024-02-16T14:33:38;17.40;66.80
27314;DHT22;14800;48.174;9.798;2024-02-16T14:36:04;17.40;66.70
27314;DHT22;14800;48.174;9.798;2024-02-16T14:38:30;17.40;66.70
27314;DHT22;14800;48.174;9.798;2024-02-16T14:40:56;17.40;66.70
27314;DHT22;14800;48.174;9.798;2024-02-16T14:43:21;17.40;66.70
27314;DHT22;14800;48.174;9.798;2024-02-16T14:45:47;17.40;66.70
27314;DHT22;14800;48.174;9.798;2024-02-16T14:48:13;17.30;66.60
27314;DHT22;14800;48.174;9.798;2024-02-16T14:50:39;17.30;67.10
27314;DHT22;14800;48.174;9.798;2024-02-16T14:53:06;17.30;66.60
27314;DHT22;14800;48.174;9.798;2024-02-16T14:55:31;17.20;66.60
27314;DHT22;14800;48.174;9.798;2024-02-16T14:57:57;17.20;66.70
27314;DHT22;14800;48.174;9.798;2024-02-16T15:00:23;17.20;66.70
27314;DHT22;14800;48.174;9.798;2024-02-16T15:02:50;17.20;66.80
27314;DHT22;14800;48.174;9.798;2024-02-16T15:05:15;17.20;66.90
27314;DHT22;14800;48.174;9.798;2024-02-16T15:07:41;17.10;66.90
27314;DHT22;14800;48.174;9.798;2024-02-16T15:10:07;17.10;66.90
27314;DHT22;14800;48.174;9.798;2024-02-16T15:12:33;17.10;67.10
27314;DHT22;14800;48.174;9.798;2024-02-16T15:14:58;17.10;67.10
27314;DHT22;14800;48.174;9.798;2024-02-16T15:17:27;17.10;67.10
27314;DHT22;14800;48.174;9.798;2024-02-16T15:19:53;17.10;67.20
27314;DHT22;14800;48.174;9.798;2024-02-16T15:22:18;17.00;67.20
27314;DHT22;14800;48.174;9.798;2024-02-16T15:24:44;17.10;67.30
27314;DHT22;14800;48.174;9.798;2024-02-16T15:27:10;17.00;67.30
27314;DHT22;14800;48.174;9.798;2024-02-16T15:29:36;17.00;67.30
27314;DHT22;14800;48.174;9.798;2024-02-16T15:32:01;17.00;67.00
27314;DHT22;14800;48.174;9.798;2024-02-16T15:34:27;17.00;66.90
27314;DHT22;14800;48.174;9.798;2024-02-16T15:36:52;17.00;66.70
27314;DHT22;14800;48.174;9.798;2024-02-16T15:39:20;16.90;66.70